sensor_id;sensor_type;location;lat;lon;timestamp;P1;durP1;ratioP1;P2;durP2;ratioP2
23302;SDS011;11820;48.738;9.092;2024-01-27T00:00:21;2.73;;;1.40;;
23302;SDS011;11820;48.738;9.092;2024-01-27T00:02:47;4.00;;;1.10;;
23302;SDS011;11820;48.738;9.092;2024-01-27T00:05:12;2.27;;;1.27;;
23302;SDS011;11820;48.738;9.092;2024-01-27T00:07:37;3.37;;;1.30;;
23302;SDS011;11820;48.738;9.092;2024-01-27T00:10:03;2.97;;;1.10;;
23302;SDS011;11820;48.738;9.092;2024-01-27T00:12:28;4.90;;;2.03;;
23302;SDS011;11820;48.738;9.092;2024-01-27T00:14:54;1.77;;;1.00;;
23302;SDS011;11820;48.738;9.092;2024-01-27T00:17:19;3.27;;;1.50;;
23302;SDS011;11820;48.738;9.092;2024-01-27T00:19:49;5.40;;;1.60;;
23302;SDS011;11820;48.738;9.092;2024-01-27T00:22:14;4.67;;;1.10;;
23302;SDS011;11820;48.738;9.092;2024-01-27T00:24:40;1.57;;;1.20;;
23302;SDS011;11820;48.738;9.092;2024-01-27T00:27:05;2.87;;;1.10;;
23302;SDS011;11820;48.738;9.092;2024-01-27T00:29:30;1.97;;;1.37;;
23302;SDS011;11820;48.738;9.092;2024-01-27T00:31:56;2.27;;;1.30;;
23302;SDS011;11820;48.738;9.092;2024-01-27T00:34:21;2.57;;;1.40;;
23302;SDS011;11820;48.738;9.092;2024-01-27T00:36:46;3.77;;;1.40;;
23302;SDS011;11820;48.738;9.092;2024-01-27T00:39:17;4.30;;;1.30;;
23302;SDS011;11820;48.738;9.092;2024-01-27T00:41:43;2.47;;;1.27;;
23302;SDS011;11820;48.738;9.092;2024-01-27T00:44:09;7.03;;;1.30;;
23302;SDS011;11820;48.738;9.092;2024-01-27T00:46:36;1.93;;;1.40;;
23302;SDS011;11820;48.738;9.092;2024-01-27T00:49:02;4.53;;;1.70;;
23302;SDS011;11820;48.738;9.092;2024-01-27T00:51:27;2.50;;;1.40;;
23302;SDS011;11820;48.738;9.092;2024-01-27T00:53:52;3.50;;;1.37;;
23302;SDS011;11820;48.738;9.092;2024-01-27T00:56:18;2.13;;;1.30;;
23302;SDS011;11820;48.738;9.092;2024-01-27T00:58:43;3.43;;;1.30;;
23302;SDS011;11820;48.738;9.092;2024-01-27T01:01:08;1.83;;;1.47;;
23302;SDS011;11820;48.738;9.092;2024-01-27T01:03:34;4.30;;;1.60;;
23302;SDS011;11820;48.738;9.092;2024-01-27T01:05:59;2.30;;;1.20;;
23302;SDS011;11820;48.738;9.092;2024-01-27T01:08:24;1.67;;;1.20;;
23302;SDS011;11820;48.738;9.092;2024-01-27T01:10:49;3.20;;;1.50;;
23302;SDS011;11820;48.738;9.092;2024-01-27T01:13:15;5.30;;;2.17;;
23302;SDS011;11820;48.738;9.092;2024-01-27T01:15:40;2.23;;;1.40;;
23302;SDS011;11820;48.738;9.092;2024-01-27T01:18:06;3.20;;;1.23;;
23302;SDS011;11820;48.738;9.092;2024-01-27T01:20:31;2.93;;;1.40;;
23302;SDS011;11820;48.738;9.092;2024-01-27T01:22:57;2.73;;;1.50;;
23302;SDS011;11820;48.738;9.092;2024-01-27T01:25:23;4.33;;;1.40;;
23302;SDS011;11820;48.738;9.092;2024-01-27T01:27:48;3.60;;;1.60;;
23302;SDS011;11820;48.738;9.092;2024-01-27T01:30:14;5.10;;;1.80;;
23302;SDS011;11820;48.738;9.092;2024-01-27T01:32:40;1.83;;;1.30;;
23302;SDS011;11820;48.738;9.092;2024-01-27T01:35:05;2.97;;;1.40;;
23302;SDS011;11820;48.738;9.092;2024-01-27T01:37:31;3.60;;;1.40;;
23302;SDS011;11820;48.738;9.092;2024-01-27T01:39:56;1.50;;;1.30;;
23302;SDS011;11820;48.738;9.092;2024-01-27T01:42:21;3.80;;;1.30;;
23302;SDS011;11820;48.738;9.092;2024-01-27T01:44:50;1.40;;;1.30;;
23302;SDS011;11820;48.738;9.092;2024-01-27T01:47:16;2.17;;;1.50;;
23302;SDS011;11820;48.738;9.092;2024-01-27T01:49:41;2.80;;;1.47;;
23302;SDS011;11820;48.738;9.092;2024-01-27T01:52:06;2.03;;;1.30;;
23302;SDS011;11820;48.738;9.092;2024-01-27T01:54:32;1.20;;;1.10;;
23302;SDS011;11820;48.738;9.092;2024-01-27T01:56:58;7.50;;;1.97;;
23302;SDS011;11820;48.738;9.092;2024-01-27T01:59:24;3.73;;;1.67;;
23302;SDS011;11820;48.738;9.092;2024-01-27T02:01:49;3.00;;;1.80;;
23302;SDS011;11820;48.738;9.092;2024-01-27T02:04:14;2.53;;;1.37;;
23302;SDS011;11820;48.738;9.092;2024-01-27T02:06:40;3.43;;;1.60;;
23302;SDS011;11820;48.738;9.092;2024-01-27T02:09:05;4.00;;;1.60;;
23302;SDS011;11820;48.738;9.092;2024-01-27T02:11:31;4.43;;;1.60;;
23302;SDS011;11820;48.738;9.092;2024-01-27T02:13:56;4.30;;;1.50;;
23302;SDS011;11820;48.738;9.092;2024-01-27T02:16:21;5.97;;;1.87;;
23302;SDS011;11820;48.738;9.092;2024-01-27T02:18:47;2.80;;;1.33;;
23302;SDS011;11820;48.738;9.092;2024-01-27T02:21:12;4.73;;;1.80;;
23302;SDS011;11820;48.738;9.092;2024-01-27T02:23:38;2.67;;;1.47;;
23302;SDS011;11820;48.738;9.092;2024-01-27T02:26:03;1.77;;;1.50;;
23302;SDS011;11820;48.738;9.092;2024-01-27T02:28:28;3.40;;;1.60;;
23302;SDS011;11820;48.738;9.092;2024-01-27T02:30:57;4.87;;;1.80;;
23302;SDS011;11820;48.738;9.092;2024-01-27T02:33:22;3.10;;;1.60;;
23302;SDS011;11820;48.738;9.092;2024-01-27T02:35:48;3.40;;;1.43;;
23302;SDS011;11820;48.738;9.092;2024-01-27T02:38:13;1.30;;;1.20;;
23302;SDS011;11820;48.738;9.092;2024-01-27T02:40:38;3.53;;;1.47;;
23302;SDS011;11820;48.738;9.092;2024-01-27T02:43:04;3.80;;;1.70;;
23302;SDS011;11820;48.738;9.092;2024-01-27T02:45:29;4.50;;;1.70;;
23302;SDS011;11820;48.738;9.092;2024-01-27T02:47:54;3.53;;;1.53;;
23302;SDS011;11820;48.738;9.092;2024-01-27T02:50:19;3.07;;;1.70;;
23302;SDS011;11820;48.738;9.092;2024-01-27T02:52:45;4.40;;;1.67;;
23302;SDS011;11820;48.738;9.092;2024-01-27T02:55:10;5.23;;;1.50;;
23302;SDS011;11820;48.738;9.092;2024-01-27T02:57:35;4.37;;;1.90;;
23302;SDS011;11820;48.738;9.092;2024-01-27T03:00:01;2.17;;;1.70;;
23302;SDS011;11820;48.738;9.092;2024-01-27T03:02:26;2.90;;;1.80;;
23302;SDS011;11820;48.738;9.092;2024-01-27T03:04:52;2.80;;;1.80;;
23302;SDS011;11820;48.738;9.092;2024-01-27T03:07:17;3.87;;;1.27;;
23302;SDS011;11820;48.738;9.092;2024-01-27T03:09:42;3.57;;;1.80;;
23302;SDS011;11820;48.738;9.092;2024-01-27T03:12:08;5.03;;;1.50;;
23302;SDS011;11820;48.738;9.092;2024-01-27T03:14:33;4.67;;;1.90;;
23302;SDS011;11820;48.738;9.092;2024-01-27T03:16:58;6.00;;;2.10;;
23302;SDS011;11820;48.738;9.092;2024-01-27T03:19:24;5.83;;;1.60;;
23302;SDS011;11820;48.738;9.092;2024-01-27T03:21:49;5.73;;;2.03;;
23302;SDS011;11820;48.738;9.092;2024-01-27T03:24:14;3.60;;;1.87;;
23302;SDS011;11820;48.738;9.092;2024-01-27T03:26:40;2.50;;;1.73;;
23302;SDS011;11820;48.738;9.092;2024-01-27T03:29:05;4.33;;;1.83;;
23302;SDS011;11820;48.738;9.092;2024-01-27T03:31:31;3.83;;;1.63;;
23302;SDS011;11820;48.738;9.092;2024-01-27T03:33:58;5.10;;;1.73;;
23302;SDS011;11820;48.738;9.092;2024-01-27T03:36:24;4.20;;;1.80;;
23302;SDS011;11820;48.738;9.092;2024-01-27T03:38:49;3.33;;;1.87;;
23302;SDS011;11820;48.738;9.092;2024-01-27T03:41:15;2.67;;;2.33;;
23302;SDS011;11820;48.738;9.092;2024-01-27T03:43:40;2.87;;;2.27;;
23302;SDS011;11820;48.738;9.092;2024-01-27T03:46:05;5.80;;;1.87;;
23302;SDS011;11820;48.738;9.092;2024-01-27T03:48:30;2.33;;;1.70;;
23302;SDS011;11820;48.738;9.092;2024-01-27T03:50:56;5.57;;;1.50;;
23302;SDS011;11820;48.738;9.092;2024-01-27T03:53:21;6.03;;;1.67;;
23302;SDS011;11820;48.738;9.092;2024-01-27T03:55:47;4.07;;;1.63;;
23302;SDS011;11820;48.738;9.092;2024-01-27T03:58:12;2.33;;;1.60;;
23302;SDS011;11820;48.738;9.092;2024-01-27T04:00:37;4.00;;;1.80;;
23302;SDS011;11820;48.738;9.092;2024-01-27T04:03:03;4.13;;;1.70;;
23302;SDS011;11820;48.738;9.092;2024-01-27T04:05:29;2.53;;;1.30;;
23302;SDS011;11820;48.738;9.092;2024-01-27T04:07:55;2.27;;;1.33;;
23302;SDS011;11820;48.738;9.092;2024-01-27T04:10:21;4.70;;;1.70;;
23302;SDS011;11820;48.738;9.092;2024-01-27T04:12:47;2.63;;;2.03;;
23302;SDS011;11820;48.738;9.092;2024-01-27T04:15:12;7.63;;;2.13;;
23302;SDS011;11820;48.738;9.092;2024-01-27T04:17:38;4.57;;;1.80;;
23302;SDS011;11820;48.738;9.092;2024-01-27T04:20:05;5.70;;;3.50;;
23302;SDS011;11820;48.738;9.092;2024-01-27T04:22:31;5.17;;;2.63;;
23302;SDS011;11820;48.738;9.092;2024-01-27T04:24:57;4.43;;;1.90;;
23302;SDS011;11820;48.738;9.092;2024-01-27T04:27:22;7.60;;;2.57;;
23302;SDS011;11820;48.738;9.092;2024-01-27T04:29:48;8.03;;;2.87;;
23302;SDS011;11820;48.738;9.092;2024-01-27T04:32:13;5.73;;;2.90;;
23302;SDS011;11820;48.738;9.092;2024-01-27T04:34:39;2.20;;;1.90;;
23302;SDS011;11820;48.738;9.092;2024-01-27T04:37:04;2.40;;;2.20;;
23302;SDS011;11820;48.738;9.092;2024-01-27T04:39:30;6.80;;;2.03;;
23302;SDS011;11820;48.738;9.092;2024-01-27T04:41:55;5.83;;;1.97;;
23302;SDS011;11820;48.738;9.092;2024-01-27T04:44:20;7.13;;;1.80;;
23302;SDS011;11820;48.738;9.092;2024-01-27T04:46:46;3.17;;;1.70;;
23302;SDS011;11820;48.738;9.092;2024-01-27T04:49:11;5.77;;;2.00;;
23302;SDS011;11820;48.738;9.092;2024-01-27T04:51:37;4.83;;;2.00;;
23302;SDS011;11820;48.738;9.092;2024-01-27T04:54:02;6.03;;;2.10;;
23302;SDS011;11820;48.738;9.092;2024-01-27T04:56:27;6.87;;;2.40;;
23302;SDS011;11820;48.738;9.092;2024-01-27T04:58:53;4.67;;;2.10;;
23302;SDS011;11820;48.738;9.092;2024-01-27T05:01:18;3.17;;;2.00;;
23302;SDS011;11820;48.738;9.092;2024-01-27T05:03:43;2.97;;;1.60;;
23302;SDS011;11820;48.738;9.092;2024-01-27T05:06:09;5.23;;;1.80;;
23302;SDS011;11820;48.738;9.092;2024-01-27T05:08:35;3.67;;;1.80;;
23302;SDS011;11820;48.738;9.092;2024-01-27T05:11:00;3.83;;;1.90;;
23302;SDS011;11820;48.738;9.092;2024-01-27T05:13:26;4.90;;;1.80;;
23302;SDS011;11820;48.738;9.092;2024-01-27T05:15:51;4.93;;;1.53;;
23302;SDS011;11820;48.738;9.092;2024-01-27T05:18:17;4.67;;;1.77;;
23302;SDS011;11820;48.738;9.092;2024-01-27T05:20:42;6.03;;;2.70;;
23302;SDS011;11820;48.738;9.092;2024-01-27T05:23:07;5.00;;;2.03;;
23302;SDS011;11820;48.738;9.092;2024-01-27T05:25:32;6.10;;;1.87;;
23302;SDS011;11820;48.738;9.092;2024-01-27T05:27:58;4.53;;;1.80;;
23302;SDS011;11820;48.738;9.092;2024-01-27T05:30:23;4.03;;;1.80;;
23302;SDS011;11820;48.738;9.092;2024-01-27T05:32:48;4.33;;;1.80;;
23302;SDS011;11820;48.738;9.092;2024-01-27T05:35:14;3.40;;;1.43;;
23302;SDS011;11820;48.738;9.092;2024-01-27T05:37:39;4.03;;;1.70;;
23302;SDS011;11820;48.738;9.092;2024-01-27T05:40:05;6.70;;;1.70;;
23302;SDS011;11820;48.738;9.092;2024-01-27T05:42:32;5.20;;;1.73;;
23302;SDS011;11820;48.738;9.092;2024-01-27T05:44:57;4.67;;;1.90;;
23302;SDS011;11820;48.738;9.092;2024-01-27T05:47:22;6.70;;;1.73;;
23302;SDS011;11820;48.738;9.092;2024-01-27T05:49:48;2.27;;;1.57;;
23302;SDS011;11820;48.738;9.092;2024-01-27T05:52:13;2.73;;;1.50;;
23302;SDS011;11820;48.738;9.092;2024-01-27T05:54:41;4.53;;;1.70;;
23302;SDS011;11820;48.738;9.092;2024-01-27T05:57:07;3.77;;;1.80;;
23302;SDS011;11820;48.738;9.092;2024-01-27T05:59:32;2.70;;;1.90;;
23302;SDS011;11820;48.738;9.092;2024-01-27T06:01:58;4.83;;;2.03;;
23302;SDS011;11820;48.738;9.092;2024-01-27T06:04:23;9.80;;;2.67;;
23302;SDS011;11820;48.738;9.092;2024-01-27T06:06:49;4.00;;;2.33;;
23302;SDS011;11820;48.738;9.092;2024-01-27T06:09:14;3.07;;;1.83;;
23302;SDS011;11820;48.738;9.092;2024-01-27T06:11:39;5.50;;;1.97;;
23302;SDS011;11820;48.738;9.092;2024-01-27T06:14:05;3.03;;;1.90;;
23302;SDS011;11820;48.738;9.092;2024-01-27T06:16:31;2.67;;;1.80;;
23302;SDS011;11820;48.738;9.092;2024-01-27T06:18:57;6.57;;;2.00;;
23302;SDS011;11820;48.738;9.092;2024-01-27T06:21:22;8.03;;;2.07;;
23302;SDS011;11820;48.738;9.092;2024-01-27T06:23:47;4.97;;;2.10;;
23302;SDS011;11820;48.738;9.092;2024-01-27T06:26:13;5.80;;;2.20;;
23302;SDS011;11820;48.738;9.092;2024-01-27T06:28:40;7.47;;;2.90;;
23302;SDS011;11820;48.738;9.092;2024-01-27T06:31:05;8.73;;;2.80;;
23302;SDS011;11820;48.738;9.092;2024-01-27T06:33:32;4.43;;;2.47;;
23302;SDS011;11820;48.738;9.092;2024-01-27T06:35:59;2.83;;;2.00;;
23302;SDS011;11820;48.738;9.092;2024-01-27T06:38:26;4.20;;;2.10;;
23302;SDS011;11820;48.738;9.092;2024-01-27T06:40:51;5.03;;;2.10;;
23302;SDS011;11820;48.738;9.092;2024-01-27T06:43:17;7.63;;;2.40;;
23302;SDS011;11820;48.738;9.092;2024-01-27T06:45:42;5.33;;;2.40;;
23302;SDS011;11820;48.738;9.092;2024-01-27T06:48:07;6.53;;;2.70;;
23302;SDS011;11820;48.738;9.092;2024-01-27T06:50:33;4.57;;;2.33;;
23302;SDS011;11820;48.738;9.092;2024-01-27T06:52:58;4.70;;;2.13;;
23302;SDS011;11820;48.738;9.092;2024-01-27T06:55:24;3.70;;;2.20;;
23302;SDS011;11820;48.738;9.092;2024-01-27T06:57:49;3.60;;;2.10;;
23302;SDS011;11820;48.738;9.092;2024-01-27T07:00:15;4.93;;;2.40;;
23302;SDS011;11820;48.738;9.092;2024-01-27T07:02:41;4.57;;;2.30;;
23302;SDS011;11820;48.738;9.092;2024-01-27T07:05:09;7.93;;;2.07;;
23302;SDS011;11820;48.738;9.092;2024-01-27T07:07:35;9.33;;;2.40;;
23302;SDS011;11820;48.738;9.092;2024-01-27T07:10:00;4.50;;;2.37;;
23302;SDS011;11820;48.738;9.092;2024-01-27T07:12:26;3.53;;;2.50;;
23302;SDS011;11820;48.738;9.092;2024-01-27T07:14:52;4.90;;;2.30;;
23302;SDS011;11820;48.738;9.092;2024-01-27T07:17:17;6.87;;;2.60;;
23302;SDS011;11820;48.738;9.092;2024-01-27T07:19:43;8.27;;;3.67;;
23302;SDS011;11820;48.738;9.092;2024-01-27T07:22:08;6.43;;;2.90;;
23302;SDS011;11820;48.738;9.092;2024-01-27T07:24:34;5.43;;;2.43;;
23302;SDS011;11820;48.738;9.092;2024-01-27T07:26:59;4.27;;;2.23;;
23302;SDS011;11820;48.738;9.092;2024-01-27T07:29:25;6.90;;;2.70;;
23302;SDS011;11820;48.738;9.092;2024-01-27T07:31:50;3.70;;;2.43;;
23302;SDS011;11820;48.738;9.092;2024-01-27T07:34:16;4.37;;;1.93;;
23302;SDS011;11820;48.738;9.092;2024-01-27T07:36:41;5.63;;;2.90;;
23302;SDS011;11820;48.738;9.092;2024-01-27T07:39:07;5.97;;;2.60;;
23302;SDS011;11820;48.738;9.092;2024-01-27T07:41:32;4.17;;;2.23;;
23302;SDS011;11820;48.738;9.092;2024-01-27T07:44:06;7.90;;;2.67;;
23302;SDS011;11820;48.738;9.092;2024-01-27T07:46:32;9.37;;;2.70;;
23302;SDS011;11820;48.738;9.092;2024-01-27T07:48:57;5.50;;;2.57;;
23302;SDS011;11820;48.738;9.092;2024-01-27T07:51:22;3.67;;;1.93;;
23302;SDS011;11820;48.738;9.092;2024-01-27T07:53:48;7.73;;;2.50;;
23302;SDS011;11820;48.738;9.092;2024-01-27T07:56:13;5.57;;;2.47;;
23302;SDS011;11820;48.738;9.092;2024-01-27T07:58:38;5.03;;;2.43;;
23302;SDS011;11820;48.738;9.092;2024-01-27T08:01:03;4.73;;;2.47;;
23302;SDS011;11820;48.738;9.092;2024-01-27T08:03:29;15.17;;;3.10;;
23302;SDS011;11820;48.738;9.092;2024-01-27T08:05:54;5.77;;;2.50;;
23302;SDS011;11820;48.738;9.092;2024-01-27T08:08:21;5.00;;;2.20;;
23302;SDS011;11820;48.738;9.092;2024-01-27T08:10:46;7.93;;;2.33;;
23302;SDS011;11820;48.738;9.092;2024-01-27T08:13:11;5.03;;;2.30;;
23302;SDS011;11820;48.738;9.092;2024-01-27T08:15:37;10.80;;;2.80;;
23302;SDS011;11820;48.738;9.092;2024-01-27T08:18:02;4.47;;;2.20;;
23302;SDS011;11820;48.738;9.092;2024-01-27T08:20:27;4.97;;;2.53;;
23302;SDS011;11820;48.738;9.092;2024-01-27T08:22:53;5.07;;;2.40;;
23302;SDS011;11820;48.738;9.092;2024-01-27T08:25:18;7.87;;;2.90;;
23302;SDS011;11820;48.738;9.092;2024-01-27T08:27:43;4.80;;;2.73;;
23302;SDS011;11820;48.738;9.092;2024-01-27T08:30:09;5.60;;;2.47;;
23302;SDS011;11820;48.738;9.092;2024-01-27T08:32:35;8.80;;;3.27;;
23302;SDS011;11820;48.738;9.092;2024-01-27T08:35:00;7.07;;;3.40;;
23302;SDS011;11820;48.738;9.092;2024-01-27T08:37:26;10.00;;;3.23;;
23302;SDS011;11820;48.738;9.092;2024-01-27T08:39:51;7.33;;;2.70;;
23302;SDS011;11820;48.738;9.092;2024-01-27T08:42:16;5.23;;;2.70;;
23302;SDS011;11820;48.738;9.092;2024-01-27T08:44:42;9.13;;;2.70;;
23302;SDS011;11820;48.738;9.092;2024-01-27T08:47:07;4.20;;;2.80;;
23302;SDS011;11820;48.738;9.092;2024-01-27T08:49:32;10.80;;;2.80;;
23302;SDS011;11820;48.738;9.092;2024-01-27T08:51:58;7.77;;;3.10;;
23302;SDS011;11820;48.738;9.092;2024-01-27T08:54:23;7.17;;;3.37;;
23302;SDS011;11820;48.738;9.092;2024-01-27T08:56:49;6.20;;;3.23;;
23302;SDS011;11820;48.738;9.092;2024-01-27T08:59:14;6.83;;;3.17;;
23302;SDS011;11820;48.738;9.092;2024-01-27T09:01:39;4.73;;;2.93;;
23302;SDS011;11820;48.738;9.092;2024-01-27T09:04:05;5.77;;;3.03;;
23302;SDS011;11820;48.738;9.092;2024-01-27T09:06:30;8.97;;;3.20;;
23302;SDS011;11820;48.738;9.092;2024-01-27T09:08:55;7.80;;;2.90;;
23302;SDS011;11820;48.738;9.092;2024-01-27T09:11:21;7.37;;;3.30;;
23302;SDS011;11820;48.738;9.092;2024-01-27T09:13:52;7.23;;;3.93;;
23302;SDS011;11820;48.738;9.092;2024-01-27T09:16:17;6.37;;;3.93;;
23302;SDS011;11820;48.738;9.092;2024-01-27T09:18:43;10.83;;;3.97;;
23302;SDS011;11820;48.738;9.092;2024-01-27T09:21:08;9.43;;;3.97;;
23302;SDS011;11820;48.738;9.092;2024-01-27T09:23:34;8.23;;;4.40;;
23302;SDS011;11820;48.738;9.092;2024-01-27T09:26:00;13.07;;;3.77;;
23302;SDS011;11820;48.738;9.092;2024-01-27T09:28:25;13.27;;;3.87;;
23302;SDS011;11820;48.738;9.092;2024-01-27T09:30:51;10.93;;;3.53;;
23302;SDS011;11820;48.738;9.092;2024-01-27T09:33:16;6.93;;;3.30;;
23302;SDS011;11820;48.738;9.092;2024-01-27T09:35:44;7.50;;;3.03;;
23302;SDS011;11820;48.738;9.092;2024-01-27T09:38:10;7.70;;;3.23;;
23302;SDS011;11820;48.738;9.092;2024-01-27T09:40:37;8.17;;;3.13;;
23302;SDS011;11820;48.738;9.092;2024-01-27T09:43:03;9.60;;;2.93;;
23302;SDS011;11820;48.738;9.092;2024-01-27T09:45:28;5.87;;;2.70;;
23302;SDS011;11820;48.738;9.092;2024-01-27T09:47:56;7.93;;;2.33;;
23302;SDS011;11820;48.738;9.092;2024-01-27T09:50:24;6.03;;;2.60;;
23302;SDS011;11820;48.738;9.092;2024-01-27T09:52:50;6.30;;;2.80;;
23302;SDS011;11820;48.738;9.092;2024-01-27T09:55:17;5.87;;;2.70;;
23302;SDS011;11820;48.738;9.092;2024-01-27T09:57:42;11.93;;;2.67;;
23302;SDS011;11820;48.738;9.092;2024-01-27T10:00:10;11.83;;;2.87;;
23302;SDS011;11820;48.738;9.092;2024-01-27T10:02:39;3.27;;;1.80;;
23302;SDS011;11820;48.738;9.092;2024-01-27T10:05:07;8.00;;;2.60;;
23302;SDS011;11820;48.738;9.092;2024-01-27T10:07:33;9.30;;;2.80;;
23302;SDS011;11820;48.738;9.092;2024-01-27T10:09:59;11.97;;;3.10;;
23302;SDS011;11820;48.738;9.092;2024-01-27T10:12:24;7.50;;;2.47;;
23302;SDS011;11820;48.738;9.092;2024-01-27T10:14:51;9.23;;;2.80;;
23302;SDS011;11820;48.738;9.092;2024-01-27T10:17:21;7.10;;;2.90;;
23302;SDS011;11820;48.738;9.092;2024-01-27T10:20:01;5.37;;;2.50;;
23302;SDS011;11820;48.738;9.092;2024-01-27T10:22:37;8.13;;;2.30;;
23302;SDS011;11820;48.738;9.092;2024-01-27T10:25:03;12.60;;;3.33;;
23302;SDS011;11820;48.738;9.092;2024-01-27T10:27:29;9.17;;;2.80;;
23302;SDS011;11820;48.738;9.092;2024-01-27T10:29:54;7.27;;;2.90;;
23302;SDS011;11820;48.738;9.092;2024-01-27T10:32:20;8.97;;;2.80;;
23302;SDS011;11820;48.738;9.092;2024-01-27T10:34:48;8.13;;;2.57;;
23302;SDS011;11820;48.738;9.092;2024-01-27T10:37:14;8.43;;;2.80;;
23302;SDS011;11820;48.738;9.092;2024-01-27T10:39:40;6.73;;;2.43;;
23302;SDS011;11820;48.738;9.092;2024-01-27T10:42:06;8.80;;;2.70;;
23302;SDS011;11820;48.738;9.092;2024-01-27T10:44:34;8.57;;;2.50;;
23302;SDS011;11820;48.738;9.092;2024-01-27T10:47:03;5.20;;;2.30;;
23302;SDS011;11820;48.738;9.092;2024-01-27T10:49:31;6.10;;;2.70;;
23302;SDS011;11820;48.738;9.092;2024-01-27T10:52:01;6.30;;;2.47;;
23302;SDS011;11820;48.738;9.092;2024-01-27T10:54:34;8.97;;;2.43;;
23302;SDS011;11820;48.738;9.092;2024-01-27T10:57:01;11.37;;;2.50;;
23302;SDS011;11820;48.738;9.092;2024-01-27T10:59:28;4.70;;;2.77;;
23302;SDS011;11820;48.738;9.092;2024-01-27T11:01:57;6.43;;;2.30;;
23302;SDS011;11820;48.738;9.092;2024-01-27T11:04:23;7.90;;;2.77;;
23302;SDS011;11820;48.738;9.092;2024-01-27T11:06:49;9.03;;;2.93;;
23302;SDS011;11820;48.738;9.092;2024-01-27T11:09:15;6.77;;;3.83;;
23302;SDS011;11820;48.738;9.092;2024-01-27T11:11:43;6.13;;;2.67;;
23302;SDS011;11820;48.738;9.092;2024-01-27T11:14:10;5.63;;;2.60;;
23302;SDS011;11820;48.738;9.092;2024-01-27T11:16:36;8.67;;;2.63;;
23302;SDS011;11820;48.738;9.092;2024-01-27T11:19:08;5.90;;;2.40;;
23302;SDS011;11820;48.738;9.092;2024-01-27T11:21:35;7.23;;;3.00;;
23302;SDS011;11820;48.738;9.092;2024-01-27T11:24:01;4.77;;;2.20;;
23302;SDS011;11820;48.738;9.092;2024-01-27T11:26:36;7.00;;;2.70;;
23302;SDS011;11820;48.738;9.092;2024-01-27T11:29:05;7.07;;;2.87;;
23302;SDS011;11820;48.738;9.092;2024-01-27T11:31:32;9.30;;;3.23;;
23302;SDS011;11820;48.738;9.092;2024-01-27T11:33:57;4.93;;;2.67;;
23302;SDS011;11820;48.738;9.092;2024-01-27T11:36:23;10.07;;;2.83;;
23302;SDS011;11820;48.738;9.092;2024-01-27T11:38:50;7.03;;;2.70;;
23302;SDS011;11820;48.738;9.092;2024-01-27T11:41:28;9.53;;;2.47;;
23302;SDS011;11820;48.738;9.092;2024-01-27T11:43:55;6.40;;;3.23;;
23302;SDS011;11820;48.738;9.092;2024-01-27T11:46:22;10.10;;;2.73;;
23302;SDS011;11820;48.738;9.092;2024-01-27T11:48:48;8.13;;;3.27;;
23302;SDS011;11820;48.738;9.092;2024-01-27T11:51:14;4.43;;;2.80;;
23302;SDS011;11820;48.738;9.092;2024-01-27T11:53:39;7.77;;;2.87;;
23302;SDS011;11820;48.738;9.092;2024-01-27T11:56:05;7.63;;;2.67;;
23302;SDS011;11820;48.738;9.092;2024-01-27T11:58:31;5.17;;;2.80;;
23302;SDS011;11820;48.738;9.092;2024-01-27T12:00:57;8.40;;;2.90;;
23302;SDS011;11820;48.738;9.092;2024-01-27T12:03:23;7.77;;;2.80;;
23302;SDS011;11820;48.738;9.092;2024-01-27T12:05:49;9.83;;;4.33;;
23302;SDS011;11820;48.738;9.092;2024-01-27T12:08:16;9.10;;;3.03;;
23302;SDS011;11820;48.738;9.092;2024-01-27T12:10:42;6.33;;;3.13;;
23302;SDS011;11820;48.738;9.092;2024-01-27T12:13:07;10.83;;;3.37;;
23302;SDS011;11820;48.738;9.092;2024-01-27T12:15:32;10.10;;;3.50;;
23302;SDS011;11820;48.738;9.092;2024-01-27T12:17:57;7.07;;;3.10;;
23302;SDS011;11820;48.738;9.092;2024-01-27T12:20:23;6.13;;;3.00;;
23302;SDS011;11820;48.738;9.092;2024-01-27T12:22:48;9.00;;;2.90;;
23302;SDS011;11820;48.738;9.092;2024-01-27T12:25:20;7.70;;;3.10;;
23302;SDS011;11820;48.738;9.092;2024-01-27T12:27:46;12.80;;;4.50;;
23302;SDS011;11820;48.738;9.092;2024-01-27T12:30:11;6.67;;;2.93;;
23302;SDS011;11820;48.738;9.092;2024-01-27T12:32:37;8.93;;;2.93;;
23302;SDS011;11820;48.738;9.092;2024-01-27T12:35:06;9.27;;;3.17;;
23302;SDS011;11820;48.738;9.092;2024-01-27T12:37:33;5.90;;;3.10;;
23302;SDS011;11820;48.738;9.092;2024-01-27T12:39:59;6.03;;;2.37;;
23302;SDS011;11820;48.738;9.092;2024-01-27T12:42:24;8.30;;;2.80;;
23302;SDS011;11820;48.738;9.092;2024-01-27T12:44:50;6.47;;;3.07;;
23302;SDS011;11820;48.738;9.092;2024-01-27T12:47:15;6.27;;;2.50;;
23302;SDS011;11820;48.738;9.092;2024-01-27T12:49:40;7.10;;;2.47;;
23302;SDS011;11820;48.738;9.092;2024-01-27T12:52:06;6.27;;;2.97;;
23302;SDS011;11820;48.738;9.092;2024-01-27T12:54:32;9.97;;;3.17;;
23302;SDS011;11820;48.738;9.092;2024-01-27T12:56:57;9.20;;;2.80;;
23302;SDS011;11820;48.738;9.092;2024-01-27T12:59:23;6.47;;;2.90;;
23302;SDS011;11820;48.738;9.092;2024-01-27T13:01:49;5.60;;;2.60;;
23302;SDS011;11820;48.738;9.092;2024-01-27T13:04:14;7.27;;;2.60;;
23302;SDS011;11820;48.738;9.092;2024-01-27T13:06:40;8.87;;;3.10;;
23302;SDS011;11820;48.738;9.092;2024-01-27T13:09:05;6.07;;;2.73;;
23302;SDS011;11820;48.738;9.092;2024-01-27T13:11:31;6.47;;;2.77;;
23302;SDS011;11820;48.738;9.092;2024-01-27T13:13:56;5.60;;;2.83;;
23302;SDS011;11820;48.738;9.092;2024-01-27T13:16:22;5.73;;;1.80;;
23302;SDS011;11820;48.738;9.092;2024-01-27T13:18:47;3.87;;;1.50;;
23302;SDS011;11820;48.738;9.092;2024-01-27T13:21:12;5.07;;;1.80;;
23302;SDS011;11820;48.738;9.092;2024-01-27T13:23:38;5.47;;;1.97;;
23302;SDS011;11820;48.738;9.092;2024-01-27T13:26:03;4.93;;;2.00;;
23302;SDS011;11820;48.738;9.092;2024-01-27T13:28:29;4.30;;;1.70;;
23302;SDS011;11820;48.738;9.092;2024-01-27T13:30:54;3.73;;;1.37;;
23302;SDS011;11820;48.738;9.092;2024-01-27T13:33:20;2.60;;;1.13;;
23302;SDS011;11820;48.738;9.092;2024-01-27T13:35:45;4.53;;;1.30;;
23302;SDS011;11820;48.738;9.092;2024-01-27T13:38:14;3.77;;;1.50;;
23302;SDS011;11820;48.738;9.092;2024-01-27T13:40:41;5.37;;;4.03;;
23302;SDS011;11820;48.738;9.092;2024-01-27T13:43:10;12.67;;;3.93;;
23302;SDS011;11820;48.738;9.092;2024-01-27T13:45:35;5.23;;;2.00;;
23302;SDS011;11820;48.738;9.092;2024-01-27T13:48:00;6.53;;;2.50;;
23302;SDS011;11820;48.738;9.092;2024-01-27T13:50:26;7.93;;;2.70;;
23302;SDS011;11820;48.738;9.092;2024-01-27T13:52:52;3.43;;;1.80;;
23302;SDS011;11820;48.738;9.092;2024-01-27T13:55:17;2.33;;;1.43;;
23302;SDS011;11820;48.738;9.092;2024-01-27T13:57:43;4.00;;;1.10;;
23302;SDS011;11820;48.738;9.092;2024-01-27T14:00:09;6.47;;;1.50;;
23302;SDS011;11820;48.738;9.092;2024-01-27T14:02:35;2.57;;;1.53;;
23302;SDS011;11820;48.738;9.092;2024-01-27T14:05:01;4.53;;;1.87;;
23302;SDS011;11820;48.738;9.092;2024-01-27T14:07:26;3.47;;;2.00;;
23302;SDS011;11820;48.738;9.092;2024-01-27T14:09:52;6.50;;;2.17;;
23302;SDS011;11820;48.738;9.092;2024-01-27T14:12:17;4.07;;;2.00;;
23302;SDS011;11820;48.738;9.092;2024-01-27T14:14:43;4.83;;;2.30;;
23302;SDS011;11820;48.738;9.092;2024-01-27T14:17:09;5.77;;;2.30;;
23302;SDS011;11820;48.738;9.092;2024-01-27T14:19:34;4.47;;;2.50;;
23302;SDS011;11820;48.738;9.092;2024-01-27T14:21:59;5.27;;;1.93;;
23302;SDS011;11820;48.738;9.092;2024-01-27T14:24:25;6.73;;;2.93;;
23302;SDS011;11820;48.738;9.092;2024-01-27T14:26:51;5.70;;;2.00;;
23302;SDS011;11820;48.738;9.092;2024-01-27T14:29:17;4.07;;;1.93;;
23302;SDS011;11820;48.738;9.092;2024-01-27T14:31:43;5.87;;;2.20;;
23302;SDS011;11820;48.738;9.092;2024-01-27T14:34:08;6.30;;;2.20;;
23302;SDS011;11820;48.738;9.092;2024-01-27T14:36:34;4.50;;;2.20;;
23302;SDS011;11820;48.738;9.092;2024-01-27T14:39:00;7.30;;;2.43;;